Time;durP1;ratioP1;P1;durP2;ratioP2;P2;SDS_P1;SDS_P2;PMS_P1;PMS_P2;Temp;Humidity;BMP_temperature;BMP_pressure;BME280_temperature;BME280_humidity;BME280_pressure;Samples;Min_cycle;Max_cycle;Signal;HPM_P1;HPM_P2
2022/11/29 00:01:38;;;;;;;47.42;12.32;;;;;;;;;;5051548;28;20049;-72
2022/11/29 00:04:04;;;;;;;48.40;12.35;;;;;;;;;;5050921;28;20396;-71
2022/11/29 00:06:31;;;;;;;70.55;12.68;;;;;;;;;;5051155;28;20055;-71
2022/11/29 00:08:59;;;;;;;23.73;11.38;;;;;;;;;;5048160;28;20048;-71
2022/11/29 00:14:15;;;;;;;27.30;11.82;;;;;;;;;;5050997;28;20041;-71
2022/11/29 00:16:42;;;;;;;22.92;12.13;;;;;;;;;;5034165;28;20064;-71
2022/11/29 00:19:11;;;;;;;17.50;11.18;;;;;;;;;;5051115;28;20123;-71
2022/11/29 00:21:37;;;;;;;23.30;12.05;;;;;;;;;;5052237;28;20048;-71
2022/11/29 00:24:03;;;;;;;22.98;11.27;;;;;;;;;;5052101;28;20472;-71
2022/11/29 00:26:29;;;;;;;40.03;10.88;;;;;;;;;;5050742;28;20076;-71
2022/11/29 00:28:55;;;;;;;29.33;12.38;;;;;;;;;;5050714;28;20082;-71
2022/11/29 00:31:21;;;;;;;24.75;11.98;;;;;;;;;;5051095;28;20080;-71
2022/11/29 00:33:47;;;;;;;18.30;10.82;;;;;;;;;;5034373;28;20048;-71
2022/11/29 00:36:14;;;;;;;23.38;12.35;;;;;;;;;;5052183;28;20037;-71
2022/11/29 00:38:40;;;;;;;19.50;11.02;;;;;;;;;;5034367;28;20072;-71
2022/11/29 00:41:07;;;;;;;23.30;11.02;;;;;;;;;;5052046;28;20183;-70
2022/11/29 00:43:33;;;;;;;18.83;10.77;;;;;;;;;;5050805;28;20037;-71
2022/11/29 00:45:59;;;;;;;17.63;11.25;;;;;;;;;;5083590;28;20077;-71
2022/11/29 00:48:25;;;;;;;23.30;12.25;;;;;;;;;;5050800;28;20453;-71
2022/11/29 00:50:51;;;;;;;28.92;12.25;;;;;;;;;;5050396;28;20041;-71
2022/11/29 00:53:17;;;;;;;30.85;11.63;;;;;;;;;;5050319;28;20044;-71
2022/11/29 00:55:44;;;;;;;41.35;12.48;;;;;;;;;;5050553;28;20064;-71
2022/11/29 00:58:10;;;;;;;22.17;13.07;;;;;;;;;;5050619;28;20037;-70
2022/11/29 01:00:36;;;;;;;23.55;12.93;;;;;;;;;;5050404;28;20053;-71
2022/11/29 01:03:02;;;;;;;24.27;12.23;;;;;;;;;;5050357;28;20455;-71
2022/11/29 01:05:30;;;;;;;19.55;12.18;;;;;;;;;;5054606;28;20049;-70
2022/11/29 01:07:56;;;;;;;19.80;11.07;;;;;;;;;;5054533;28;20045;-70
2022/11/29 01:10:22;;;;;;;19.20;11.20;;;;;;;;;;5054289;28;20053;-71
2022/11/29 01:12:48;;;;;;;23.52;12.70;;;;;;;;;;5054717;28;20086;-71
2022/11/29 01:15:14;;;;;;;19.98;10.88;;;;;;;;;;5054165;28;20580;-70
2022/11/29 01:17:40;;;;;;;27.13;11.88;;;;;;;;;;5054719;28;20041;-71
2022/11/29 01:20:07;;;;;;;21.95;11.77;;;;;;;;;;5054363;28;20037;-70
2022/11/29 01:22:34;;;;;;;19.83;11.25;;;;;;;;;;5077205;28;20041;-72
2022/11/29 01:25:00;;;;;;;22.02;11.25;;;;;;;;;;5054477;28;20076;-71
2022/11/29 01:27:26;;;;;;;24.15;12.15;;;;;;;;;;5054060;28;20064;-70
2022/11/29 01:29:52;;;;;;;24.55;11.70;;;;;;;;;;5054049;28;20055;-70
2022/11/29 01:32:18;;;;;;;21.73;11.55;;;;;;;;;;5054081;28;20036;-71
2022/11/29 01:34:44;;;;;;;20.17;11.63;;;;;;;;;;5037612;28;20045;-71
2022/11/29 01:37:11;;;;;;;22.02;11.70;;;;;;;;;;5053751;28;20037;-71
2022/11/29 01:39:37;;;;;;;23.45;11.27;;;;;;;;;;5054047;28;20045;-71
2022/11/29 01:42:03;;;;;;;20.55;11.65;;;;;;;;;;5053889;28;20037;-71
2022/11/29 01:44:29;;;;;;;21.92;11.63;;;;;;;;;;5055209;28;20045;-71
2022/11/29 01:46:56;;;;;;;24.10;12.68;;;;;;;;;;5053701;28;20052;-71
2022/11/29 01:49:23;;;;;;;24.50;12.20;;;;;;;;;;5071217;28;20101;-70
2022/11/29 01:51:56;;;;;;;21.60;12.35;;;;;;;;;;5053927;28;20042;-71
2022/11/29 01:54:22;;;;;;;24.60;13.18;;;;;;;;;;5053679;28;20037;-71
2022/11/29 01:56:49;;;;;;;32.38;13.25;;;;;;;;;;5054864;28;20033;-71
2022/11/29 01:59:18;;;;;;;21.67;12.60;;;;;;;;;;5053410;28;20489;-71
2022/11/29 02:01:44;;;;;;;21.73;12.27;;;;;;;;;;5053677;28;20049;-71
2022/11/29 02:04:11;;;;;;;27.63;12.38;;;;;;;;;;5053259;28;20059;-71
2022/11/29 02:06:38;;;;;;;29.70;12.50;;;;;;;;;;5053701;28;20551;-70
2022/11/29 02:09:05;;;;;;;27.08;12.27;;;;;;;;;;5053120;28;20446;-72
2022/11/29 02:12:02;;;;;;;20.05;11.98;;;7.00;99.90;;;;;;5053532;28;20072;-71
2022/11/29 02:14:52;;;;;;;21.63;11.13;;;6.90;99.90;;;;;;5039091;28;20136;-70
2022/11/29 02:17:18;;;;;;;20.17;11.73;;;;;;;;;;5053481;28;20037;-70
2022/11/29 02:19:44;;;;;;;21.70;11.55;;;;;;;;;;5036705;28;20041;-71
2022/11/29 02:22:13;;;;;;;21.50;10.88;;;;;;;;;;5053089;28;20136;-70
2022/11/29 02:24:39;;;;;;;17.33;11.38;;;;;;;;;;5052939;28;20116;-70
2022/11/29 02:27:08;;;;;;;22.70;10.95;;;;;;;;;;5053194;28;20567;-70
2022/11/29 02:29:34;;;;;;;24.27;10.55;;;;;;;;;;5052896;28;20124;-71
2022/11/29 02:32:19;;;;;;;18.75;11.07;;;;;;;;;;5052970;28;20044;-70
2022/11/29 02:34:58;;;;;;;24.83;10.88;;;;;;;;;;5053848;28;20039;-70
2022/11/29 02:37:27;;;;;;;21.50;10.55;;;;;;;;;;5055041;28;20385;-70
2022/11/29 02:40:02;;;;;;;23.70;12.23;;;;;;;;;;5055086;28;20485;-71
2022/11/29 02:42:28;;;;;;;19.48;11.00;;;;;;;;;;5053623;28;20461;-70
2022/11/29 02:45:09;;;;;;;23.88;10.70;;;;;;;;;;5053717;28;20485;-70
2022/11/29 02:47:59;;;;;;;24.52;10.38;;;;;;;;;;5053456;28;20083;-71
2022/11/29 02:50:36;;;;;;;21.08;11.05;;;;;;;;;;5053082;28;20160;-70
2022/11/29 02:53:09;;;;;;;21.42;11.23;;;;;;;;;;5085840;28;20037;-70
2022/11/29 02:55:44;;;;;;;20.05;10.48;;;;;;;;;;5036092;28;20039;-71
2022/11/29 02:58:10;;;;;;;24.60;10.93;;;;;;;;;;5053087;28;20036;-70
2022/11/29 03:00:38;;;;;;;20.50;11.00;;;;;;;;;;5052346;28;20057;-71
2022/11/29 03:03:42;;;;;;;24.02;10.82;;;6.90;99.90;;;;;;5052741;28;20049;-71
2022/11/29 03:06:17;;;;;;;19.88;10.57;;;;;;;;;;5054073;28;20054;-71
2022/11/29 03:08:49;;;;;;;20.35;10.15;;;;;;;;;;5052538;28;20068;-71
2022/11/29 03:11:28;;;;;;;24.25;11.02;;;;;;;;;;5052165;28;20485;-71
2022/11/29 03:14:03;;;;;;;24.58;9.98;;;;;;;;;;5052505;28;20370;-70
2022/11/29 03:16:44;;;;;;;19.15;10.50;;;;;;;;;;5052103;28;20037;-71
2022/11/29 03:19:22;;;;;;;20.92;10.60;;;;;;;;;;5043887;28;20049;-71
2022/11/29 03:21:56;;;;;;;19.27;10.13;;;;;;;;;;5051921;28;20102;-71
2022/11/29 03:24:31;;;;;;;19.05;10.90;;;;;;;;;;5052245;28;20052;-71
2022/11/29 03:27:01;;;;;;;19.92;11.13;;;;;;;;;;5050809;28;20041;-70
2022/11/29 03:29:32;;;;;;;20.92;10.77;;;;;;;;;;5035120;28;20045;-71
2022/11/29 03:32:15;;;;;;;18.63;10.25;;;;;;;;;;5052846;28;20130;-70
2022/11/29 03:34:44;;;;;;;16.08;9.32;;;;;;;;;;5051659;28;20044;-70
2022/11/29 03:37:19;;;;;;;20.67;9.93;;;;;;;;;;5053052;28;20363;-70
2022/11/29 03:40:06;;;;;;;19.13;10.00;;;;;;;;;;5051747;28;20041;-71
2022/11/29 03:42:43;;;;;;;15.73;9.82;;;;;;;;;;5035030;28;20044;-71
2022/11/29 03:45:24;;;;;;;20.20;10.25;;;;;;;;;;5052792;28;20065;-71
2022/11/29 03:48:10;;;;;;;16.13;9.70;;;;;;;;;;5049660;28;20125;-71
2022/11/29 03:50:45;;;;;;;24.98;10.55;;;;;;;;;;5051291;28;20049;-71
2022/11/29 03:53:20;;;;;;;17.92;10.15;;;;;;;;;;5034925;28;20116;-71
2022/11/29 03:55:53;;;;;;;17.25;9.30;;;;;;;;;;5051303;28;20033;-70
2022/11/29 03:58:38;;;;;;;20.50;10.25;;;;;;;;;;5051801;28;20044;-71
2022/11/29 04:01:17;;;;;;;18.80;10.00;;;;;;;;;;5051345;28;20420;-71
2022/11/29 04:03:52;;;;;;;18.00;9.13;;;;;;;;;;5051442;28;20037;-70
2022/11/29 04:06:27;;;;;;;16.83;10.15;;;;;;;;;;5050560;28;20071;-71
2022/11/29 04:09:08;;;;;;;16.95;9.73;;;;;;;;;;5050683;28;20106;-71
2022/11/29 04:11:58;;;;;;;17.10;9.38;;;;;;;;;;5051103;28;20037;-71
2022/11/29 04:14:24;;;;;;;17.67;9.13;;;;;;;;;;5051425;28;20049;-71
2022/11/29 04:16:50;;;;;;;16.08;8.80;;;;;;;;;;5034970;28;20029;-71
2022/11/29 04:19:36;;;;;;;17.23;9.10;;;;;;;;;;5034750;28;20060;-71
2022/11/29 04:22:05;;;;;;;16.35;8.48;;;;;;;;;;5052096;28;20055;-71
2022/11/29 04:24:53;;;;;;;19.60;9.70;;;;;;;;;;5050901;28;20037;-71
2022/11/29 04:27:39;;;;;;;20.65;9.63;;;;;;;;;;5034222;28;20041;-71
2022/11/29 04:30:08;;;;;;;22.05;10.50;;;;;;;;;;5050741;28;20450;-71
2022/11/29 04:32:46;;;;;;;16.90;9.77;;;;;;;;;;5051203;28;20040;-72
2022/11/29 04:35:31;;;;;;;16.40;9.55;;;;;;;;;;5052384;28;20041;-72
2022/11/29 04:38:00;;;;;;;22.33;10.02;;;;;;;;;;5050891;28;20041;-71
2022/11/29 04:40:36;;;;;;;21.17;9.55;;;;;;;;;;5034406;28;20482;-72
2022/11/29 04:43:39;;;;;;;21.60;10.25;;;6.50;99.90;;;;;;5050996;28;20041;-72
2022/11/29 04:46:16;;;;;;;19.02;9.90;;;;;;;;;;5050442;28;20041;-71
2022/11/29 04:48:57;;;;;;;20.92;10.00;;;;;;;;;;5051821;28;20128;-71
2022/11/29 04:51:36;;;;;;;23.30;9.50;;;;;;;;;;5052011;28;20045;-71
2022/11/29 04:54:02;;;;;;;20.30;9.80;;;;;;;;;;5031495;28;20044;-71
2022/11/29 04:56:49;;;;;;;19.65;9.73;;;;;;;;;;5050586;28;20043;-72
2022/11/29 04:59:23;;;;;;;24.15;9.60;;;;;;;;;;5050570;28;20060;-71
2022/11/29 05:02:08;;;;;;;21.70;10.38;;;;;;;;;;5050522;28;20053;-73
2022/11/29 05:04:40;;;;;;;22.02;9.82;;;;;;;;;;5050861;28;20041;-71
2022/11/29 05:07:17;;;;;;;15.20;9.02;;;;;;;;;;5050431;28;20497;-72
2022/11/29 05:09:46;;;;;;;21.42;9.98;;;;;;;;;;5050238;28;20124;-73
2022/11/29 05:12:23;;;;;;;26.10;10.60;;;;;;;;;;5050322;28;20477;-71
2022/11/29 05:15:07;;;;;;;27.48;10.18;;;;;;;;;;5033810;28;20045;-71
2022/11/29 05:17:50;;;;;;;15.38;9.02;;;;;;;;;;5051818;28;20393;-72
2022/11/29 05:20:16;;;;;;;20.73;10.70;;;;;;;;;;5050459;28;20067;-71
2022/11/29 05:22:52;;;;;;;28.73;10.25;;;;;;;;;;5050312;28;20257;-71
2022/11/29 05:25:24;;;;;;;17.15;9.65;;;;;;;;;;5049432;28;20045;-71
2022/11/29 05:28:15;;;;;;;19.35;10.43;;;;;;;;;;5050500;28;20040;-71
2022/11/29 05:31:03;;;;;;;19.25;9.50;;;;;;;;;;5050291;28;20040;-66
2022/11/29 05:33:44;;;;;;;19.50;9.43;;;;;;;;;;5033013;28;20101;-66
2022/11/29 05:36:22;;;;;;;23.25;9.75;;;;;;;;;;5068093;28;20078;-66
2022/11/29 05:38:58;;;;;;;28.58;10.70;;;;;;;;;;5051235;28;20033;-67
2022/11/29 05:41:28;;;;;;;23.33;9.88;;;;;;;;;;5033420;28;20079;-66
2022/11/29 05:44:03;;;;;;;25.17;9.40;;;;;;;;;;5075349;28;20044;-66
2022/11/29 05:46:52;;;;;;;27.90;9.90;;;;;;;;;;5051312;28;20047;-66
2022/11/29 05:49:18;;;;;;;25.42;10.30;;;;;;;;;;5049744;28;20045;-66
2022/11/29 05:51:49;;;;;;;20.73;9.93;;;;;;;;;;5053770;28;20041;-66
2022/11/29 05:54:24;;;;;;;22.73;10.10;;;;;;;;;;5054983;28;20033;-66
2022/11/29 05:56:53;;;;;;;26.67;10.65;;;;;;;;;;5053514;28;20508;-66
2022/11/29 05:59:27;;;;;;;17.30;10.05;;;;;;;;;;5052656;28;20056;-66
2022/11/29 06:02:12;;;;;;;29.77;10.50;;;;;;;;;;5075582;28;20480;-66
2022/11/29 06:04:56;;;;;;;23.48;9.48;;;;;;;;;;5051573;28;20484;-66
2022/11/29 06:07:31;;;;;;;25.73;11.43;;;;;;;;;;5083495;28;20049;-66
2022/11/29 06:10:00;;;;;;;25.05;10.25;;;;;;;;;;5053168;28;20052;-66
2022/11/29 06:12:29;;;;;;;21.63;9.63;;;;;;;;;;5071223;28;20494;-66
2022/11/29 06:15:10;;;;;;;27.42;11.15;;;;;;;;;;5053043;28;20143;-66
2022/11/29 06:17:39;;;;;;;25.98;10.57;;;;;;;;;;5053323;28;20110;-66
2022/11/29 06:20:18;;;;;;;27.38;10.93;;;;;;;;;;5053170;28;20049;-66
2022/11/29 06:22:55;;;;;;;28.73;11.48;;;;;;;;;;5052467;28;20048;-66
2022/11/29 06:25:27;;;;;;;23.75;9.98;;;;;;;;;;5036311;28;20428;-66
2022/11/29 06:28:05;;;;;;;24.40;10.43;;;;;;;;;;5052967;28;20366;-66
2022/11/29 06:30:50;;;;;;;29.23;11.20;;;;;;;;;;5036281;28;20053;-66
2022/11/29 06:33:25;;;;;;;27.15;10.25;;;;;;;;;;5053988;28;20151;-66
2022/11/29 06:36:03;;;;;;;29.25;10.85;;;;;;;;;;5034507;28;20044;-66
2022/11/29 06:38:30;;;;;;;32.53;10.85;;;;;;;;;;5060718;28;20473;-66
2022/11/29 06:40:56;;;;;;;42.38;12.27;;;;;;;;;;5057631;28;20041;-66
2022/11/29 06:43:24;;;;;;;32.22;10.05;;;;;;;;;;5054934;28;20141;-66
2022/11/29 06:46:00;;;;;;;34.55;10.30;;;;;;;;;;5053802;28;20200;-66
2022/11/29 06:48:28;;;;;;;31.98;10.02;;;;;;;;;;5053465;28;20072;-66
2022/11/29 06:50:57;;;;;;;24.50;10.23;;;;;;;;;;5052916;28;20048;-66
2022/11/29 06:53:23;;;;;;;39.00;10.98;;;;;;;;;;5053410;28;20047;-66
2022/11/29 06:55:52;;;;;;;25.75;9.85;;;;;;;;;;5053345;28;20074;-66
2022/11/29 06:58:37;;;;;;;31.17;10.13;;;;;;;;;;5053403;28;20037;-66
2022/11/29 07:01:23;;;;;;;31.42;9.98;;;;;;;;;;5054728;28;20049;-66
2022/11/29 07:03:49;;;;;;;33.70;9.60;;;;;;;;;;5053228;28;20131;-66
2022/11/29 07:06:23;;;;;;;37.33;10.48;;;;;;;;;;5055675;28;20094;-66
2022/11/29 07:09:10;;;;;;;34.60;9.35;;;;;;;;;;5053206;28;20070;-66
2022/11/29 07:11:36;;;;;;;33.50;9.13;;;;;;;;;;5053769;28;20051;-66
2022/11/29 07:14:02;;;;;;;22.92;9.60;;;;;;;;;;5053084;28;20048;-66
2022/11/29 07:16:33;;;;;;;40.13;10.23;;;;;;;;;;5052954;28;20045;-66
2022/11/29 07:19:02;;;;;;;32.25;9.65;;;;;;;;;;5052830;28;20048;-66
2022/11/29 07:21:49;;;;;;;33.17;8.80;;;6.90;99.90;;;;;;5052832;28;20363;-66
2022/11/29 07:24:21;;;;;;;45.13;9.48;;;;;;;;;;5036111;28;20041;-67
2022/11/29 07:26:55;;;;;;;43.08;9.02;;;;;;;;;;5052324;28;20106;-66
2022/11/29 07:29:27;;;;;;;35.45;9.15;;;;;;;;;;5075850;28;20486;-66
2022/11/29 07:32:08;;;;;;;33.30;8.98;;;;;;;;;;5083829;28;20440;-66
2022/11/29 07:34:53;;;;;;;37.58;8.98;;;;;;;;;;5036122;28;20037;-66
2022/11/29 07:37:35;;;;;;;36.40;9.20;;;;;;;;;;5053754;28;20058;-66
2022/11/29 07:40:24;;;;;;;31.73;9.98;;;;;;;;;;5052534;28;20060;-66
2022/11/29 07:42:50;;;;;;;31.40;8.60;;;;;;;;;;5053941;28;20032;-65
2022/11/29 07:45:27;;;;;;;31.55;7.50;;;;;;;;;;5053748;28;20033;-64
2022/11/29 07:47:54;;;;;;;26.27;8.60;;;;;;;;;;5052675;28;20098;-64
2022/11/29 07:50:20;;;;;;;33.92;8.02;;;;;;;;;;5035641;28;20051;-64
2022/11/29 07:52:47;;;;;;;30.52;8.57;;;;;;;;;;5053580;28;20047;-64
2022/11/29 07:55:14;;;;;;;38.72;7.97;;;;;;;;;;5035906;28;20041;-67
2022/11/29 07:57:40;;;;;;;33.05;8.65;;;;;;;;;;5053774;28;20037;-65
2022/11/29 08:00:07;;;;;;;30.63;6.97;;;;;;;;;;5052276;28;20052;-65
2022/11/29 08:02:33;;;;;;;36.25;8.45;;;;;;;;;;5052153;28;20083;-65
2022/11/29 08:05:00;;;;;;;33.00;6.75;;;;;;;;;;5035844;28;20081;-64
2022/11/29 08:07:26;;;;;;;40.40;9.13;;;;;;;;;;5052606;28;20481;-65
2022/11/29 08:09:53;;;;;;;25.23;6.95;;;;;;;;;;5051154;28;20635;-65
2022/11/29 08:12:19;;;;;;;29.15;6.65;;;;;;;;;;5052347;28;20028;-65
2022/11/29 08:14:45;;;;;;;33.40;7.03;;;;;;;;;;5033790;28;20037;-65
2022/11/29 08:17:11;;;;;;;26.75;6.03;;;;;;;;;;5051995;28;20068;-65
2022/11/29 08:19:37;;;;;;;33.38;6.25;;;;;;;;;;5051306;28;20036;-65
2022/11/29 08:22:03;;;;;;;26.70;6.60;;;;;;;;;;5051443;28;20071;-65
2022/11/29 08:24:29;;;;;;;26.90;6.97;;;;;;;;;;5050493;28;20045;-65
2022/11/29 08:26:55;;;;;;;30.23;6.25;;;;;;;;;;5051477;28;20045;-65
2022/11/29 08:29:22;;;;;;;34.10;7.07;;;;;;;;;;5051344;28;20041;-65
2022/11/29 08:31:52;;;;;;;32.22;7.10;;;;;;;;;;5051928;28;20047;-65
2022/11/29 08:34:19;;;;;;;25.35;6.32;;;;;;;;;;5051597;28;20033;-65
2022/11/29 08:36:45;;;;;;;30.48;6.15;;;;;;;;;;5052821;28;20040;-65
2022/11/29 08:39:11;;;;;;;28.20;6.43;;;;;;;;;;5051044;28;20588;-65
2022/11/29 08:41:37;;;;;;;26.63;6.75;;;;;;;;;;5052880;28;20067;-65
2022/11/29 08:44:04;;;;;;;23.45;6.93;;;;;;;;;;5051217;28;20040;-69
2022/11/29 08:49:15;;;;;;;36.42;6.88;;;;;;;;;;5051686;28;20040;-70
2022/11/29 08:51:41;;;;;;;36.67;6.78;;;;;;;;;;5052383;28;20082;-70
2022/11/29 08:54:08;;;;;;;30.38;6.65;;;;;;;;;;5052781;28;20045;-70
2022/11/29 08:56:35;;;;;;;31.13;6.82;;;;;;;;;;5051383;28;20072;-70
2022/11/29 08:59:01;;;;;;;22.88;7.57;;;;;;;;;;5051361;28;20049;-70
2022/11/29 09:01:28;;;;;;;33.25;7.20;;;;;;;;;;5051371;28;20057;-70
2022/11/29 09:04:04;;;;;;;32.97;7.13;;;;;;;;;;5034784;28;20085;-70
2022/11/29 09:06:40;;;;;;;26.13;6.15;;;;;;;;;;5050673;28;20085;-70
2022/11/29 09:09:07;;;;;;;21.90;5.68;;;;;;;;;;5052460;28;20099;-69
2022/11/29 09:11:33;;;;;;;33.95;5.93;;;;;;;;;;5051053;28;20170;-69
2022/11/29 09:14:01;;;;;;;27.10;5.65;;;;;;;;;;5050675;28;20037;-69
2022/11/29 09:16:29;;;;;;;26.98;6.75;;;;;;;;;;5034356;28;20064;-69
2022/11/29 09:18:56;;;;;;;38.08;6.55;;;;;;;;;;5051575;28;20124;-69
2022/11/29 09:21:23;;;;;;;22.42;7.20;;;;;;;;;;5051135;28;20052;-69
2022/11/29 09:23:56;;;;;;;29.30;6.72;;;;;;;;;;5052820;28;20124;-69
2022/11/29 09:26:22;;;;;;;26.90;6.50;;;;;;;;;;5054974;28;20432;-69
2022/11/29 09:28:48;;;;;;;38.20;7.35;;;;;;;;;;5038564;28;20132;-69
2022/11/29 09:31:15;;;;;;;41.65;6.85;;;;;;;;;;5054625;28;20051;-69
2022/11/29 09:33:41;;;;;;;30.63;6.38;;;;;;;;;;5056042;28;20041;-70
2022/11/29 09:36:08;;;;;;;29.38;6.32;;;;;;;;;;5054178;28;20041;-70
2022/11/29 09:38:34;;;;;;;34.20;6.55;;;;;;;;;;5054952;28;20492;-70
2022/11/29 09:41:10;;;;;;;25.67;5.63;;;;;;;;;;5054992;28;20493;-70
2022/11/29 09:43:48;;;;;;;33.13;6.10;;;;;;;;;;5034929;28;20490;-72
2022/11/29 09:46:20;;;;;;;26.83;5.80;;;;;;;;;;5052887;28;20045;-69
2022/11/29 09:48:58;;;;;;;27.45;7.20;;;;;;;;;;5054979;28;20036;-69
2022/11/29 09:51:24;;;;;;;46.42;5.80;;;;;;;;;;5053593;28;20070;-69
2022/11/29 09:53:53;;;;;;;42.03;6.57;;;;;;;;;;5055166;28;20511;-70
2022/11/29 09:56:40;;;;;;;28.08;6.82;;;;;;;;;;5053501;28;20040;-70
2022/11/29 09:59:27;;;;;;;37.70;6.18;;;;;;;;;;5052247;28;20049;-70
2022/11/29 10:01:56;;;;;;;25.95;5.45;;;;;;;;;;5053419;28;20045;-70
2022/11/29 10:04:28;;;;;;;32.63;5.80;;;;;;;;;;5051797;28;20044;-70
2022/11/29 10:07:02;;;;;;;29.50;6.60;;;;;;;;;;5053600;28;20037;-70
2022/11/29 10:09:28;;;;;;;34.08;5.80;;;;;;;;;;5053775;28;20543;-70
2022/11/29 10:12:00;;;;;;;31.63;6.43;;;;;;;;;;5053041;28;20044;-70
2022/11/29 10:14:28;;;;;;;30.83;6.68;;;;;;;;;;5053065;28;20037;-69
2022/11/29 10:16:57;;;;;;;34.60;5.97;;;;;;;;;;5053191;28;20064;-70
2022/11/29 10:19:32;;;;;;;44.45;7.13;;;;;;;;;;5052933;28;20049;-70
2022/11/29 10:22:15;;;;;;;29.83;6.20;;;;;;;;;;5050751;28;20158;-70
2022/11/29 10:24:42;;;;;;;41.30;8.55;;;;;;;;;;5037741;28;20039;-69
2022/11/29 10:27:22;;;;;;;31.42;6.53;;;;;;;;;;5053808;28;20037;-69
2022/11/29 10:29:52;;;;;;;31.58;7.25;;;;;;;;;;5055278;28;20084;-69
2022/11/29 10:32:20;;;;;;;33.38;7.18;;;;;;;;;;5053603;28;20071;-70
2022/11/29 10:34:47;;;;;;;30.13;7.20;;;;;;;;;;5053715;28;20044;-70
2022/11/29 10:37:15;;;;;;;30.83;7.10;;;;;;;;;;5054784;28;20397;-69
2022/11/29 10:39:44;;;;;;;32.03;7.30;;;;;;;;;;5055221;28;20441;-69
2022/11/29 10:42:47;;;;;;;37.45;7.75;;;;;;;;;;5055133;28;20044;-69
2022/11/29 10:45:00;;;;;;;33.08;6.88;;;;;;;;;;5053887;28;20048;-69
2022/11/29 10:47:26;;;;;;;38.45;7.00;;;;;;;;;;5053467;28;20045;-70
2022/11/29 10:49:52;;;;;;;28.38;6.10;;;;;;;;;;5054734;28;20055;-69
2022/11/29 10:52:22;;;;;;;43.75;6.20;;;;;;;;;;5054455;28;20082;-69
2022/11/29 10:54:49;;;;;;;27.20;6.43;;;;;;;;;;5053683;28;20033;-69
2022/11/29 10:57:17;;;;;;;29.50;6.50;;;;;;;;;;5053605;28;20043;-69
2022/11/29 11:00:05;;;;;;;24.10;6.53;;;;;;;;;;5036797;28;20057;-69
2022/11/29 11:02:32;;;;;;;21.95;6.20;;;;;;;;;;5054397;28;20060;-69
2022/11/29 11:04:58;;;;;;;28.83;7.45;;;;;;;;;;5053633;28;20488;-70
2022/11/29 11:07:35;;;;;;;32.90;7.70;;;;;;;;;;5054055;28;20033;-66
2022/11/29 11:10:01;;;;;;;29.20;8.77;;;;;;;;;;5053105;28;20044;-65
2022/11/29 11:12:29;;;;;;;29.08;9.32;;;;;;;;;;5052945;28;20162;-66
2022/11/29 11:15:14;;;;;;;33.75;9.80;;;;;;;;;;5053161;28;20048;-66
2022/11/29 11:17:41;;;;;;;22.20;9.05;;;;;;;;;;5052909;28;20051;-66
2022/11/29 11:20:21;;;;;;;26.17;9.77;;;;;;;;;;5053218;28;20515;-66
2022/11/29 11:23:02;;;;;;;39.05;10.25;;;;;;;;;;5052764;28;20123;-65
2022/11/29 11:25:30;;;;;;;35.88;11.55;;;;;;;;;;5052897;28;20048;-65
2022/11/29 11:27:57;;;;;;;24.50;10.88;;;;;;;;;;5052568;28;20049;-65
2022/11/29 11:30:24;;;;;;;24.33;10.52;;;;;;;;;;5052386;28;20124;-66
2022/11/29 11:33:09;;;;;;;25.05;9.85;;;;;;;;;;5052007;28;20040;-66
2022/11/29 11:35:36;;;;;;;30.45;11.32;;;;;;;;;;5051071;28;20377;-66
2022/11/29 11:38:02;;;;;;;27.80;11.40;;;;;;;;;;5053323;28;20095;-66
2022/11/29 11:40:29;;;;;;;30.63;12.85;;;;;;;;;;5053268;28;20044;-65
2022/11/29 11:43:00;;;;;;;26.05;13.27;;;;;;;;;;5049011;28;20116;-66
2022/11/29 11:45:32;;;;;;;28.73;12.70;;;;;;;;;;5052002;28;20060;-66
2022/11/29 11:48:18;;;;;;;30.03;13.47;;;;;;;;;;5033422;28;20064;-69
2022/11/29 11:50:45;;;;;;;29.58;13.70;;;;;;;;;;5032460;28;20049;-69
2022/11/29 11:53:17;;;;;;;32.60;13.75;;;;;;;;;;5034121;28;20091;-67
2022/11/29 11:55:45;;;;;;;30.83;15.00;;;;;;;;;;5050959;28;20081;-70
2022/11/29 11:58:11;;;;;;;29.48;13.88;;;;;;;;;;5051145;28;20107;-70
2022/11/29 12:00:46;;;;;;;32.47;15.35;;;;;;;;;;5053676;28;20381;-70
2022/11/29 12:03:31;;;;;;;24.00;13.82;;;;;;;;;;5053470;28;20048;-70
2022/11/29 12:06:06;;;;;;;22.75;12.75;;;;;;;;;;5052305;28;20051;-70
2022/11/29 12:08:33;;;;;;;24.38;13.40;;;;;;;;;;5053408;28;20576;-70
2022/11/29 12:11:03;;;;;;;30.13;13.68;;;;;;;;;;5052270;28;20477;-70
2022/11/29 12:13:31;;;;;;;20.92;12.30;;;;;;;;;;5035713;28;20079;-70
2022/11/29 12:16:00;;;;;;;25.65;12.18;;;;;;;;;;5053100;28;20039;-70
2022/11/29 12:18:26;;;;;;;23.67;11.20;;;;;;;;;;5052029;28;20508;-70
2022/11/29 12:20:55;;;;;;;22.80;12.23;;;;;;;;;;5052007;28;20080;-70
2022/11/29 12:23:26;;;;;;;20.67;11.13;;;;;;;;;;5052323;28;20051;-70
2022/11/29 12:25:59;;;;;;;27.63;11.73;;;;;;;;;;5052493;28;20545;-70
2022/11/29 12:28:29;;;;;;;22.45;11.95;;;;;;;;;;5035705;28;20044;-70
2022/11/29 12:31:13;;;;;;;16.92;9.77;;;;;;;;;;5051834;28;20104;-70
2022/11/29 12:33:48;;;;;;;17.42;9.45;;;;;;;;;;5052122;28;20416;-70
2022/11/29 12:36:52;;;;;;;17.15;10.50;;;10.10;99.90;;;;;;5051888;28;20033;-70
2022/11/29 12:39:36;;;;;;;19.73;10.85;;;10.00;99.90;;;;;;5032042;28;20046;-69
2022/11/29 12:42:20;;;;;;;21.35;10.30;;;;;;;;;;5038162;28;20051;-70
2022/11/29 12:44:46;;;;;;;18.98;10.60;;;;;;;;;;5051736;28;20051;-70
2022/11/29 12:47:27;;;;;;;17.73;10.48;;;;;;;;;;5051852;28;20040;-70
2022/11/29 12:50:06;;;;;;;16.50;10.27;;;;;;;;;;5051650;28;20123;-70
2022/11/29 12:52:32;;;;;;;19.75;10.23;;;;;;;;;;5051642;28;20068;-70
2022/11/29 12:55:16;;;;;;;21.58;10.30;;;;;;;;;;5051606;28;20033;-70
2022/11/29 12:57:48;;;;;;;20.55;10.60;;;;;;;;;;5051763;28;20095;-70
2022/11/29 13:00:15;;;;;;;20.15;10.30;;;;;;;;;;5055275;28;20048;-70
2022/11/29 13:02:59;;;;;;;19.20;10.65;;;;;;;;;;5055648;28;20049;-70
2022/11/29 13:05:45;;;;;;;19.02;10.45;;;;;;;;;;5055646;28;20162;-71
2022/11/29 13:08:11;;;;;;;17.48;10.02;;;;;;;;;;5055391;28;20045;-70
2022/11/29 13:10:43;;;;;;;19.42;10.60;;;;;;;;;;5055083;28;20485;-70
2022/11/29 13:13:28;;;;;;;19.08;9.48;;;;;;;;;;5054371;28;20040;-70
2022/11/29 13:16:00;;;;;;;12.57;7.63;;;;;;;;;;5055520;28;20037;-70
2022/11/29 13:18:33;;;;;;;10.10;6.57;;;;;;;;;;5054185;28;20072;-70
2022/11/29 13:21:03;;;;;;;11.75;7.13;;;;;;;;;;5054542;28;20131;-70
2022/11/29 13:23:34;;;;;;;10.25;6.80;;;;;;;;;;5056612;28;20091;-70
2022/11/29 13:26:01;;;;;;;11.13;7.20;;;;;;;;;;5055351;28;20045;-70
2022/11/29 13:28:32;;;;;;;9.70;6.63;;;;;;;;;;5055291;28;20079;-70
2022/11/29 13:31:02;;;;;;;9.63;6.88;;;;;;;;;;5055212;28;20401;-70
2022/11/29 13:33:41;;;;;;;10.90;7.60;;;;;;;;;;5055751;28;20151;-70
2022/11/29 13:36:26;;;;;;;12.68;7.53;;;;;;;;;;5038703;28;20380;-70
2022/11/29 13:38:52;;;;;;;10.77;7.25;;;;;;;;;;5054977;28;20473;-70
2022/11/29 13:41:33;;;;;;;9.55;7.18;;;;;;;;;;5055319;28;20443;-70
2022/11/29 13:44:38;;;;;;;13.10;7.60;;;;;;;;;;5054999;28;20051;-70
2022/11/29 13:47:11;;;;;;;9.18;6.38;;;;;;;;;;5034191;28;20052;-70
2022/11/29 13:49:57;;;;;;;10.98;7.03;;;;;;;;;;5017832;28;20450;-70
2022/11/29 13:52:42;;;;;;;7.53;6.18;;;;;;;;;;5047844;28;20056;-70
2022/11/29 13:55:11;;;;;;;12.13;5.95;;;;;;;;;;5056013;28;20073;-70
2022/11/29 13:57:46;;;;;;;10.15;6.43;;;;;;;;;;5054941;28;20461;-70
2022/11/29 14:00:31;;;;;;;8.68;6.55;;;;;;;;;;5054473;28;20060;-70
2022/11/29 14:03:20;;;;;;;8.05;5.93;;;;;;;;;;5054514;28;20481;-70
2022/11/29 14:05:48;;;;;;;8.30;6.40;;;;;;;;;;5054812;28;20456;-70
2022/11/29 14:08:24;;;;;;;11.98;6.47;;;;;;;;;;5054603;28;20045;-70
2022/11/29 14:10:51;;;;;;;11.20;7.03;;;;;;;;;;5053672;28;20401;-70
2022/11/29 14:13:17;;;;;;;9.43;6.53;;;;;;;;;;5054323;28;20048;-70
2022/11/29 14:15:43;;;;;;;11.95;7.35;;;;;;;;;;5054648;28;20037;-70
2022/11/29 14:18:29;;;;;;;8.30;7.10;;;;;;;;;;5054201;28;20051;-70
2022/11/29 14:20:57;;;;;;;16.95;6.90;;;;;;;;;;5054002;28;20055;-70
2022/11/29 14:23:34;;;;;;;9.80;6.80;;;;;;;;;;5055486;28;20041;-70
2022/11/29 14:26:00;;;;;;;11.00;6.68;;;;;;;;;;5055506;28;20639;-70
2022/11/29 14:28:37;;;;;;;9.00;6.65;;;;;;;;;;5054255;28;20033;-70
2022/11/29 14:31:10;;;;;;;8.77;6.20;;;;;;;;;;5053868;28;20045;-69
2022/11/29 14:33:48;;;;;;;13.45;7.20;;;;;;;;;;5037743;28;20049;-70
2022/11/29 14:36:14;;;;;;;9.13;6.82;;;;;;;;;;5054359;28;20389;-71
2022/11/29 14:38:43;;;;;;;10.70;7.50;;;;;;;;;;5054184;28;20462;-71
2022/11/29 14:41:12;;;;;;;8.90;7.03;;;;;;;;;;5054094;28;20048;-70
2022/11/29 14:43:40;;;;;;;12.48;7.22;;;;;;;;;;5053805;28;20041;-70
2022/11/29 14:46:09;;;;;;;13.25;8.05;;;;;;;;;;5037505;28;20081;-70
2022/11/29 14:48:36;;;;;;;9.95;7.35;;;;;;;;;;5053727;28;20091;-70
2022/11/29 14:51:11;;;;;;;10.80;7.72;;;;;;;;;;5053637;28;20053;-66
2022/11/29 14:53:38;;;;;;;9.05;7.57;;;;;;;;;;5053825;28;20045;-66
2022/11/29 14:56:23;;;;;;;11.32;7.20;;;;;;;;;;5053760;28;20041;-66
2022/11/29 14:59:09;;;;;;;8.25;6.57;;;;;;;;;;5053519;28;20036;-66